KAHN/AHN METAR and TAF weather

Enter ICAO airport designator
Station Type Date Time Source
KAHN METAR 2019/08/19 07:51 UTC NOAA

KAHN 190751Z AUTO 00000KT 10SM CLR 23/22 A3004 RMK AO2 SLP164 T02280217


Station Type Date Time Source
KAHN Decoded METAR 2019/08/19 07:51 UTC NOAA

Station name not available
Aug 19, 2019 - 03:51 AM EDT / 2019.08.19 0751 UTC
Wind: Calm:0
Visibility: 10 mile(s):0
Sky conditions: clear
Temperature: 73.0 F (22.8 C)
Dew Point: 71.1 F (21.7 C)
Relative Humidity: 93%
Pressure (altimeter): 30.04 in. Hg (1017 hPa)
ob: KAHN 190751Z AUTO 00000KT 10SM CLR 23/22 A3004 RMK AO2 SLP164 T02280217
cycle: 8

Station Type Date Time Source
KAHN TAF 2019/08/19 06:48 UTC NOAA

TAF KAHN 190546Z 1906/2006 18003KT P6SM VCSH FEW080
FM191000 00000KT 6SM BR FEW015
FM191200 00000KT 4SM BR SCT009
FM191400 00000KT P6SM SCT025
FM191600 13004KT P6SM SCT040
FM191900 10005KT P6SM VCSH BKN050 PROB30 1920/2001 5SM -TSRA BKN040CB

Example: see airport list